Terminal Aerodrome Forecast
Issued by NWS Sterling, VA

Current Version | Previous Version | Graphics & Text | Print | Product List | Glossary On
Versions: 1 2 3 4 5 6 7 8 9 10 11 12 13 14
000
FTUS41 KLWX 272300
TAFMRB
TAF
KMRB 272332Z 2800/2824 18004KT P6SM VCTS BKN060CB
     FM280400 34007KT P6SM BKN250
     FM280800 34007KT 5SM BR SCT250
     FM280900 34007KT 3SM BR FEW025 SCT100
     FM281200 32005KT P6SM FEW025 FEW100=

USA.gov is the U.S. government's official web portal to all federal, state and local government web resources and services.